Time;durP1;ratioP1;P1;durP2;ratioP2;P2;SDS_P1;SDS_P2;PMS_P1;PMS_P2;Temp;Humidity;BMP_temperature;BMP_pressure;BME280_temperature;BME280_humidity;BME280_pressure;Samples;Min_cycle;Max_cycle;Signal;HPM_P1;HPM_P2
2022/01/10 00:01:03;;;;;;;14.83;11.97;;;5.00;52.20;;;;;;6329593;28;20272;-77
2022/01/10 00:04:06;;;;;;;18.17;11.97;;;5.10;52.30;;;;;;6332897;28;20246;-79
2022/01/10 00:07:10;;;;;;;24.40;13.37;;;5.20;52.20;;;;;;6328531;28;20228;-80
2022/01/10 00:10:13;;;;;;;16.63;12.30;;;5.30;51.80;;;;;;6286417;28;20322;-80
2022/01/10 00:13:16;;;;;;;14.97;11.73;;;5.40;51.70;;;;;;6325326;28;20280;-80
2022/01/10 00:16:18;;;;;;;18.27;12.77;;;5.50;51.70;;;;;;6313418;28;20237;-81
2022/01/10 00:19:22;;;;;;;15.93;11.83;;;5.20;51.30;;;;;;6300042;28;20320;-78
2022/01/10 00:22:27;;;;;;;17.97;12.00;;;5.20;52.00;;;;;;6320155;28;20236;-77
2022/01/10 00:25:32;;;;;;;19.33;12.40;;;5.30;51.10;;;;;;6329954;28;20263;-79
2022/01/10 00:28:35;;;;;;;19.87;12.33;;;5.20;51.30;;;;;;6331114;28;20322;-81
2022/01/10 00:31:37;;;;;;;19.53;11.77;;;5.40;50.90;;;;;;6334389;28;20247;-79
2022/01/10 00:34:40;;;;;;;19.07;12.53;;;5.20;51.00;;;;;;6329722;28;20281;-78
2022/01/10 00:37:46;;;;;;;17.97;12.60;;;5.30;51.00;;;;;;6321675;28;20238;-81
2022/01/10 00:40:50;;;;;;;18.60;12.40;;;5.40;50.90;;;;;;6334718;28;20340;-77
2022/01/10 00:43:55;;;;;;;15.97;11.00;;;5.40;50.80;;;;;;6325170;28;20239;-78
2022/01/10 00:46:58;;;;;;;14.90;12.20;;;5.20;50.80;;;;;;6349474;27;20340;-77
2022/01/10 00:50:03;;;;;;;16.93;11.57;;;5.20;50.60;;;;;;6330055;27;20306;-77
2022/01/10 00:53:07;;;;;;;26.10;13.20;;;5.60;50.80;;;;;;6340316;28;20816;-79
2022/01/10 00:56:10;;;;;;;26.23;14.23;;;5.30;50.00;;;;;;6335532;28;20238;-76
2022/01/10 00:59:13;;;;;;;18.43;12.63;;;5.30;49.70;;;;;;6339376;27;20247;-79
2022/01/10 01:02:16;;;;;;;18.93;14.00;;;5.60;49.90;;;;;;6329398;28;20497;-80
2022/01/10 01:05:21;;;;;;;24.33;13.17;;;5.50;49.80;;;;;;6326246;28;20298;-77
2022/01/10 01:08:28;;;;;;;20.03;12.77;;;5.30;49.70;;;;;;6343282;27;20379;-79
2022/01/10 01:14:55;;;;;;;19.47;13.40;;;5.30;49.70;;;;;;6331930;27;20343;-79
2022/01/10 01:18:10;;;;;;;22.87;13.00;;;5.50;49.80;;;;;;6327697;28;20236;-77
2022/01/10 01:24:51;;;;;;;23.17;13.03;;;5.50;49.80;;;;;;6270808;28;20329;-80
2022/01/10 01:27:55;;;;;;;13.73;11.73;;;5.30;49.70;;;;;;6262731;28;20230;-79
2022/01/10 01:30:58;;;;;;;17.83;12.87;;;5.20;49.60;;;;;;6322216;28;20323;-80
2022/01/10 01:34:01;;;;;;;19.03;11.17;;;5.10;49.50;;;;;;6326549;28;20887;-79
2022/01/10 01:37:04;;;;;;;21.90;12.03;;;5.50;49.80;;;;;;6326881;28;20498;-80
2022/01/10 01:40:10;;;;;;;16.07;11.77;;;5.30;49.70;;;;;;6339664;28;20331;-80
2022/01/10 01:43:13;;;;;;;19.57;11.23;;;5.40;49.80;;;;;;6322594;28;20233;-81
2022/01/10 01:46:17;;;;;;;19.77;12.37;;;5.20;49.40;;;;;;6323678;27;20383;-80
2022/01/10 01:49:20;;;;;;;17.17;11.33;;;5.20;49.00;;;;;;6328294;28;20247;-79
2022/01/10 01:52:23;;;;;;;18.93;11.13;;;5.40;49.70;;;;;;6302944;28;20225;-78
2022/01/10 01:55:28;;;;;;;20.47;11.70;;;5.30;49.60;;;;;;6312256;28;20814;-78
2022/01/10 01:58:32;;;;;;;17.40;11.50;;;5.00;49.30;;;;;;6298196;28;20401;-79
2022/01/10 02:01:35;;;;;;;17.63;11.80;;;5.20;49.60;;;;;;6297583;28;20248;-80
2022/01/10 02:04:38;;;;;;;24.33;12.60;;;5.20;49.50;;;;;;6304108;28;20276;-80
2022/01/10 02:07:42;;;;;;;18.43;12.57;;;5.40;49.70;;;;;;6309055;28;20244;-82
2022/01/10 02:10:46;;;;;;;20.63;12.57;;;5.20;49.50;;;;;;6307953;28;20240;-79
2022/01/10 02:13:49;;;;;;;17.57;11.13;;;5.20;48.60;;;;;;6300138;28;20228;-79
2022/01/10 02:16:55;;;;;;;15.03;10.67;;;5.20;48.90;;;;;;6313272;28;20300;-80
2022/01/10 02:20:00;;;;;;;22.77;12.03;;;5.50;49.30;;;;;;6307437;28;20256;-80
2022/01/10 02:23:04;;;;;;;16.47;11.73;;;5.40;49.40;;;;;;6312069;28;20337;-77
2022/01/10 02:26:07;;;;;;;22.97;11.87;;;5.30;49.70;;;;;;6287994;28;20313;-77
2022/01/10 02:29:10;;;;;;;16.87;11.37;;;5.30;49.70;;;;;;6302674;28;20256;-80
2022/01/10 02:32:13;;;;;;;21.07;11.50;;;5.30;49.30;;;;;;6299973;28;20721;-80
2022/01/10 02:35:23;;;;;;;19.77;11.73;;;5.30;49.20;;;;;;6313615;28;20245;-79
2022/01/10 02:38:27;;;;;;;15.27;11.60;;;5.20;49.00;;;;;;6299835;28;20228;-81
2022/01/10 02:41:32;;;;;;;17.27;11.27;;;5.10;49.40;;;;;;6297748;28;21723;-80
2022/01/10 02:44:35;;;;;;;17.30;10.87;;;5.30;49.30;;;;;;6300123;28;20251;-81
2022/01/10 02:47:38;;;;;;;14.40;11.30;;;5.30;49.40;;;;;;6300355;28;20275;-79
2022/01/10 02:50:42;;;;;;;18.07;11.80;;;5.20;49.50;;;;;;6303991;28;20481;-81
2022/01/10 02:53:45;;;;;;;19.03;11.73;;;5.20;49.50;;;;;;6303503;28;20301;-76
2022/01/10 02:56:49;;;;;;;15.00;11.17;;;5.20;49.50;;;;;;6297907;28;20225;-78
2022/01/10 02:59:52;;;;;;;22.93;11.23;;;5.40;49.70;;;;;;6316476;28;20229;-79
2022/01/10 03:02:55;;;;;;;21.30;11.80;;;5.20;49.60;;;;;;6294140;28;20900;-80
2022/01/10 03:06:01;;;;;;;20.67;11.03;;;5.10;49.50;;;;;;6303291;28;20236;-78
2022/01/10 03:09:05;;;;;;;16.00;11.23;;;5.20;49.60;;;;;;6314173;28;20265;-78
2022/01/10 03:12:09;;;;;;;20.00;11.27;;;5.20;49.50;;;;;;6326396;28;20289;-80
2022/01/10 03:15:13;;;;;;;17.03;10.77;;;5.20;49.60;;;;;;6317687;28;20310;-79
2022/01/10 03:18:16;;;;;;;19.97;11.03;;;5.10;49.50;;;;;;6311284;28;20370;-80
2022/01/10 03:21:20;;;;;;;21.10;11.10;;;5.50;49.80;;;;;;6299933;28;20283;-78
2022/01/10 03:24:23;;;;;;;17.57;10.43;;;5.20;49.60;;;;;;6308551;28;20508;-80
2022/01/10 03:27:26;;;;;;;20.90;11.63;;;5.40;49.70;;;;;;6308446;28;20237;-78
2022/01/10 03:30:29;;;;;;;19.53;12.00;;;5.30;49.70;;;;;;6311441;28;20392;-79
2022/01/10 03:33:31;;;;;;;18.83;11.10;;;5.10;49.50;;;;;;6330004;28;20587;-82
2022/01/10 03:36:36;;;;;;;13.73;10.87;;;5.40;49.70;;;;;;6322726;28;20248;-78
2022/01/10 03:39:38;;;;;;;15.43;10.73;;;5.10;49.40;;;;;;6327528;27;20212;-78
2022/01/10 03:42:42;;;;;;;16.43;11.03;;;5.20;49.40;;;;;;6336493;28;20293;-76
2022/01/10 03:45:44;;;;;;;15.00;10.87;;;5.20;49.60;;;;;;6323372;28;20241;-78
2022/01/10 03:48:47;;;;;;;16.80;11.23;;;5.20;49.30;;;;;;6297872;28;20237;-78
2022/01/10 03:51:52;;;;;;;20.73;11.13;;;5.30;49.10;;;;;;6314185;28;20240;-79
2022/01/10 03:54:55;;;;;;;19.40;10.10;;;5.10;48.40;;;;;;6305670;28;20935;-79
2022/01/10 03:57:57;;;;;;;19.63;11.70;;;5.30;49.00;;;;;;6302894;28;20329;-81
2022/01/10 04:01:02;;;;;;;19.67;12.07;;;5.40;49.10;;;;;;6308361;28;20256;-78
2022/01/10 04:04:05;;;;;;;15.37;11.17;;;5.20;48.30;;;;;;6308122;28;20233;-78
2022/01/10 04:07:09;;;;;;;23.73;11.43;;;5.40;48.80;;;;;;6329114;28;20239;-78
2022/01/10 04:10:12;;;;;;;17.37;10.93;;;5.20;47.80;;;;;;6333320;28;20247;-78
2022/01/10 04:13:15;;;;;;;15.17;10.47;;;5.60;48.40;;;;;;6319925;28;20232;-81
2022/01/10 04:16:18;;;;;;;19.40;11.97;;;5.50;47.70;;;;;;6330383;28;20258;-82
2022/01/10 04:19:21;;;;;;;15.90;11.60;;;5.60;47.40;;;;;;6323571;27;20758;-79
2022/01/10 04:22:25;;;;;;;15.93;11.27;;;5.20;47.20;;;;;;6335523;27;20311;-77
2022/01/10 04:25:28;;;;;;;19.03;11.80;;;5.60;47.70;;;;;;6343873;28;20416;-78
2022/01/10 04:28:31;;;;;;;20.50;10.27;;;5.30;47.80;;;;;;6340386;28;20606;-79
2022/01/10 04:31:34;;;;;;;15.47;11.17;;;5.40;48.40;;;;;;6326479;28;20335;-80
2022/01/10 04:34:36;;;;;;;19.80;11.23;;;5.30;48.90;;;;;;6333179;28;20740;-79
2022/01/10 04:37:41;;;;;;;15.67;11.73;;;5.30;48.60;;;;;;6327636;28;20312;-80
2022/01/10 04:40:43;;;;;;;17.73;10.90;;;5.40;49.00;;;;;;6330152;27;20242;-79
2022/01/10 04:43:47;;;;;;;18.13;11.37;;;5.00;49.30;;;;;;6342159;27;20281;-80
2022/01/10 04:46:51;;;;;;;11.90;10.17;;;5.10;48.00;;;;;;6340794;27;20228;-80
2022/01/10 04:50:19;;;;;;;27.53;12.23;;;5.30;49.10;;;;;;6339076;28;20335;-82
2022/01/10 04:53:24;;;;;;;19.00;11.70;;;5.20;49.50;;;;;;6336452;28;20373;-83
2022/01/10 04:56:27;;;;;;;20.27;13.20;;;5.30;49.00;;;;;;6326261;28;20774;-81
2022/01/10 04:59:31;;;;;;;19.50;11.83;;;5.30;49.40;;;;;;6321766;27;20231;-80
2022/01/10 05:02:34;;;;;;;17.40;11.93;;;5.20;48.90;;;;;;6339758;28;20235;-81
2022/01/10 05:05:37;;;;;;;20.37;11.87;;;5.40;49.10;;;;;;6336146;28;20230;-79
2022/01/10 05:08:41;;;;;;;18.53;11.90;;;5.30;48.50;;;;;;6334984;28;20862;-83
2022/01/10 05:11:45;;;;;;;16.47;12.10;;;5.40;48.20;;;;;;6335146;28;20232;-82
2022/01/10 05:14:48;;;;;;;18.73;12.20;;;5.50;48.00;;;;;;6350751;27;20232;-81
2022/01/10 05:17:51;;;;;;;21.93;12.47;;;5.30;48.20;;;;;;6328250;27;20267;-83
2022/01/10 05:20:54;;;;;;;20.63;11.70;;;5.40;49.70;;;;;;6316284;27;20240;-80
2022/01/10 05:23:58;;;;;;;14.63;11.97;;;5.30;50.40;;;;;;6332081;27;20923;-81
2022/01/10 05:27:01;;;;;;;22.73;12.43;;;5.10;49.50;;;;;;6331796;28;21104;-80
2022/01/10 05:30:05;;;;;;;16.77;11.17;;;5.40;49.70;;;;;;6325869;28;20342;-82
2022/01/10 05:33:08;;;;;;;21.87;12.63;;;5.10;49.50;;;;;;6329322;28;20298;-81
2022/01/10 05:36:11;;;;;;;23.63;12.63;;;5.10;49.40;;;;;;6335781;27;20231;-80
2022/01/10 05:39:16;;;;;;;19.43;12.63;;;5.20;49.50;;;;;;6327369;28;20302;-81
2022/01/10 05:42:22;;;;;;;20.07;12.67;;;5.10;49.40;;;;;;6327255;27;20447;-81
2022/01/10 05:45:25;;;;;;;18.03;12.23;;;5.30;49.70;;;;;;6329142;28;21674;-81
2022/01/10 05:48:30;;;;;;;24.07;12.83;;;5.30;49.80;;;;;;6331768;27;20236;-80
2022/01/10 05:51:34;;;;;;;16.53;12.13;;;5.00;49.90;;;;;;6336562;27;20228;-80
2022/01/10 05:54:38;;;;;;;16.33;11.77;;;5.20;50.30;;;;;;6336479;27;20823;-79
2022/01/10 05:57:41;;;;;;;19.77;11.93;;;5.10;49.80;;;;;;6326212;28;20239;-80
2022/01/10 06:00:44;;;;;;;24.47;12.83;;;5.10;49.50;;;;;;6325722;28;20324;-83
2022/01/10 06:03:47;;;;;;;22.73;12.23;;;5.30;49.70;;;;;;6303873;28;20306;-81
2022/01/10 06:06:50;;;;;;;19.87;11.80;;;5.40;49.70;;;;;;6305715;28;20236;-82
2022/01/10 06:09:54;;;;;;;20.10;12.03;;;5.20;49.60;;;;;;6311359;27;20228;-81
2022/01/10 06:12:57;;;;;;;17.70;12.73;;;5.50;49.80;;;;;;6329159;27;20255;-81
2022/01/10 06:16:00;;;;;;;23.37;12.40;;;5.20;49.60;;;;;;6348396;27;20694;-81
2022/01/10 06:19:05;;;;;;;16.60;11.90;;;5.30;49.60;;;;;;6328008;27;20240;-81
2022/01/10 06:22:09;;;;;;;14.57;12.37;;;5.40;49.70;;;;;;6336485;28;20238;-84
2022/01/10 06:25:15;;;;;;;16.63;10.93;;;5.40;49.70;;;;;;6343367;27;20248;-80
2022/01/10 06:28:18;;;;;;;21.50;11.83;;;5.20;49.60;;;;;;6328531;28;20257;-81
2022/01/10 06:31:21;;;;;;;19.13;12.47;;;5.50;49.30;;;;;;6329201;28;20662;-81
2022/01/10 06:34:24;;;;;;;21.50;11.60;;;5.20;49.50;;;;;;6335497;27;20237;-82
2022/01/10 06:37:28;;;;;;;17.50;12.43;;;5.40;48.90;;;;;;6345215;27;20288;-79
2022/01/10 06:40:32;;;;;;;20.57;11.77;;;5.30;49.00;;;;;;6334883;28;20763;-80
2022/01/10 06:43:37;;;;;;;13.33;11.00;;;5.30;49.20;;;;;;6347609;27;20259;-79
2022/01/10 06:46:40;;;;;;;15.03;11.30;;;5.10;49.40;;;;;;6341522;28;20264;-82
2022/01/10 06:49:43;;;;;;;19.57;11.70;;;5.30;49.60;;;;;;6355615;27;20231;-78
2022/01/10 06:52:47;;;;;;;18.30;10.90;;;5.50;49.90;;;;;;6336207;27;20239;-79
2022/01/10 06:55:51;;;;;;;18.47;12.03;;;5.10;49.40;;;;;;6331663;27;20248;-81
2022/01/10 07:01:58;;;;;;;20.47;11.37;;;5.20;49.60;;;;;;6291385;28;20236;-57
2022/01/10 07:05:01;;;;;;;16.13;12.07;;;5.40;49.30;;;;;;6291812;28;20813;-51
2022/01/10 07:08:04;;;;;;;20.60;11.80;;;5.30;48.70;;;;;;6296897;28;20370;-56
2022/01/10 07:11:08;;;;;;;14.40;11.00;;;5.20;47.90;;;;;;6290980;28;20313;-56
2022/01/10 07:14:12;;;;;;;18.50;10.83;;;5.20;48.10;;;;;;6292938;28;20731;-58
2022/01/10 07:17:15;;;;;;;20.93;11.90;;;5.50;48.30;;;;;;6295373;28;20244;-57
2022/01/10 07:20:17;;;;;;;16.67;11.63;;;5.50;48.50;;;;;;6294841;28;20717;-56
2022/01/10 07:23:20;;;;;;;16.77;11.60;;;5.50;47.90;;;;;;6294242;28;20392;-58
2022/01/10 07:26:25;;;;;;;17.00;11.03;;;5.30;47.90;;;;;;6296217;28;20275;-58
2022/01/10 07:29:28;;;;;;;15.83;11.27;;;5.60;48.50;;;;;;6285368;28;20246;-56
2022/01/10 07:32:31;;;;;;;20.23;11.40;;;5.30;48.20;;;;;;6292846;28;20288;-57
2022/01/10 07:35:34;;;;;;;13.43;10.53;;;5.50;48.30;;;;;;6282321;28;20233;-57
2022/01/10 07:38:37;;;;;;;20.13;11.33;;;5.40;47.70;;;;;;6289462;28;20645;-57
2022/01/10 07:41:41;;;;;;;19.90;11.30;;;5.30;46.80;;;;;;6287075;28;20239;-57
2022/01/10 07:44:43;;;;;;;21.30;11.33;;;5.40;46.70;;;;;;6287229;28;20343;-56
2022/01/10 07:47:46;;;;;;;20.17;11.97;;;5.40;46.60;;;;;;6293445;28;20922;-57
2022/01/10 07:50:49;;;;;;;19.30;11.50;;;5.30;45.90;;;;;;6290845;28;20552;-58
2022/01/10 07:53:52;;;;;;;15.57;11.80;;;5.70;46.30;;;;;;6293690;28;20236;-58
2022/01/10 07:56:56;;;;;;;21.03;12.27;;;5.70;46.60;;;;;;6284824;28;20237;-57
2022/01/10 07:59:59;;;;;;;20.80;12.63;;;5.40;46.50;;;;;;6301858;28;20360;-58
2022/01/10 08:03:02;;;;;;;17.27;11.43;;;5.30;46.60;;;;;;6299938;28;20233;-57
2022/01/10 08:06:04;;;;;;;19.17;12.33;;;5.50;47.20;;;;;;6298118;28;20247;-56
2022/01/10 08:09:08;;;;;;;14.10;12.23;;;5.40;47.20;;;;;;6296543;28;20293;-58
2022/01/10 08:12:13;;;;;;;16.50;12.57;;;5.70;47.90;;;;;;6290600;28;20262;-57
2022/01/10 08:15:16;;;;;;;27.53;13.10;;;5.30;47.50;;;;;;6290834;28;20282;-58
2022/01/10 08:18:19;;;;;;;21.33;13.03;;;5.40;47.70;;;;;;6297967;28;20243;-57
2022/01/10 08:21:21;;;;;;;22.63;14.27;;;5.30;47.90;;;;;;6301101;28;20338;-57
2022/01/10 08:24:25;;;;;;;18.20;12.60;;;5.40;47.30;;;;;;6301546;28;20240;-57
2022/01/10 08:27:29;;;;;;;21.10;12.03;;;5.50;47.50;;;;;;6285379;28;20335;-53
2022/01/10 08:30:32;;;;;;;22.33;13.50;;;5.40;47.50;;;;;;6297319;28;20316;-56
2022/01/10 08:33:34;;;;;;;19.40;12.20;;;5.50;47.40;;;;;;6292732;28;20347;-57
2022/01/10 08:36:37;;;;;;;18.43;12.60;;;5.60;47.20;;;;;;6287745;28;20321;-57
2022/01/10 08:39:40;;;;;;;21.00;12.00;;;5.50;46.90;;;;;;6284436;28;20391;-56
2022/01/10 08:42:45;;;;;;;18.83;11.87;;;5.50;47.00;;;;;;6287663;28;20233;-58
2022/01/10 08:45:47;;;;;;;19.37;12.73;;;5.50;46.80;;;;;;6295657;28;20311;-58
2022/01/10 08:48:51;;;;;;;17.00;12.77;;;5.50;46.60;;;;;;6281581;28;20286;-58
2022/01/10 08:51:57;;;;;;;19.93;13.03;;;5.40;46.50;;;;;;6285811;28;20712;-56
2022/01/10 08:55:00;;;;;;;19.07;12.60;;;5.30;46.70;;;;;;6284889;28;20324;-56
2022/01/10 08:58:04;;;;;;;19.90;13.73;;;4.90;45.70;;;;;;6284940;28;20384;-57
2022/01/10 09:01:07;;;;;;;18.80;11.83;;;5.50;45.80;;;;;;6282990;28;20988;-56
2022/01/10 09:04:15;;;;;;;19.53;13.03;;;5.60;45.30;;;;;;6290267;28;20232;-57
2022/01/10 09:07:18;;;;;;;24.07;13.67;;;5.50;45.50;;;;;;6286320;28;20256;-58
2022/01/10 09:10:21;;;;;;;20.93;13.23;;;5.40;45.40;;;;;;6287059;28;20233;-58
2022/01/10 09:13:25;;;;;;;20.97;13.53;;;5.50;45.50;;;;;;6296979;28;20316;-58
2022/01/10 09:16:28;;;;;;;23.43;13.47;;;5.70;45.40;;;;;;6287946;28;20236;-59
2022/01/10 09:19:31;;;;;;;21.10;13.53;;;5.60;44.70;;;;;;6291096;28;20256;-56
2022/01/10 09:22:33;;;;;;;16.63;13.07;;;5.90;45.20;;;;;;6303025;28;20384;-57
2022/01/10 09:25:36;;;;;;;23.40;13.10;;;5.90;45.50;;;;;;6300506;28;20233;-57
2022/01/10 09:28:42;;;;;;;19.83;12.33;;;5.80;44.30;;;;;;6295164;28;20273;-57
2022/01/10 09:31:45;;;;;;;17.03;12.80;;;5.60;44.00;;;;;;6284262;28;20233;-57
2022/01/10 09:34:48;;;;;;;20.07;13.57;;;5.70;44.40;;;;;;6292758;28;20249;-57
2022/01/10 09:37:52;;;;;;;22.27;13.43;;;5.50;43.50;;;;;;6288741;28;20335;-57
2022/01/10 09:40:55;;;;;;;20.20;13.20;;;5.70;43.30;;;;;;6288448;28;20237;-58
2022/01/10 09:44:01;;;;;;;21.37;12.90;;;5.80;43.80;;;;;;6293591;28;20316;-57
2022/01/10 09:47:05;;;;;;;20.37;13.50;;;5.70;43.50;;;;;;6292774;28;20237;-56
2022/01/10 09:50:10;;;;;;;14.43;12.50;;;5.90;42.90;;;;;;6302288;28;20516;-57
2022/01/10 09:53:13;;;;;;;15.63;12.87;;;5.90;43.20;;;;;;6296914;28;20228;-58
2022/01/10 09:56:17;;;;;;;15.70;13.30;;;5.80;42.90;;;;;;6292336;28;20382;-58
2022/01/10 09:59:22;;;;;;;15.07;13.47;;;6.00;42.70;;;;;;6286919;28;20496;-58
2022/01/10 10:02:30;;;;;;;22.90;16.63;;;5.80;42.60;;;;;;6293634;28;20302;-58
2022/01/10 10:05:34;;;;;;;26.70;17.03;;;5.80;41.90;;;;;;6285791;28;20272;-57
2022/01/10 10:08:39;;;;;;;23.07;16.97;;;5.80;41.00;;;;;;6295786;28;20771;-58
2022/01/10 10:11:46;;;;;;;25.93;18.23;;;6.10;41.50;;;;;;6295841;28;20226;-56
2022/01/10 10:14:50;;;;;;;33.03;18.73;;;6.10;41.20;;;;;;6292188;28;20324;-56
2022/01/10 10:17:53;;;;;;;24.47;18.50;;;6.10;41.00;;;;;;6298513;28;20323;-58
2022/01/10 10:20:57;;;;;;;26.57;18.77;;;5.90;41.00;;;;;;6290470;28;20299;-57
2022/01/10 10:24:00;;;;;;;28.07;16.77;;;6.00;41.60;;;;;;6288819;28;20543;-58
2022/01/10 10:27:04;;;;;;;28.43;17.33;;;6.10;39.80;;;;;;6289414;28;20558;-57
2022/01/10 10:30:12;;;;;;;22.37;15.03;;;5.90;40.70;;;;;;6291453;28;20302;-58
2022/01/10 10:33:16;;;;;;;27.40;16.27;;;5.90;40.80;;;;;;6286136;28;22707;-58
2022/01/10 10:36:19;;;;;;;23.80;16.00;;;6.00;40.60;;;;;;6298390;28;20319;-58
2022/01/10 10:39:25;;;;;;;25.30;16.73;;;6.20;40.60;;;;;;6297604;28;20571;-58
2022/01/10 10:42:29;;;;;;;21.33;16.20;;;5.90;39.40;;;;;;6293525;28;20315;-57
2022/01/10 10:45:34;;;;;;;27.80;16.33;;;5.90;40.80;;;;;;6293242;28;20282;-57
2022/01/10 10:48:37;;;;;;;32.33;18.47;;;5.80;41.80;;;;;;6283413;28;20450;-57
2022/01/10 10:51:40;;;;;;;21.40;16.87;;;5.90;42.00;;;;;;6293232;28;20347;-58
2022/01/10 10:54:44;;;;;;;30.60;18.83;;;5.90;43.70;;;;;;6288083;28;20290;-57
2022/01/10 10:57:48;;;;;;;28.57;18.73;;;6.00;44.10;;;;;;6288165;28;20245;-58
2022/01/10 11:00:54;;;;;;;30.60;18.17;;;5.90;44.10;;;;;;6292743;28;20597;-56
2022/01/10 11:03:57;;;;;;;29.83;19.77;;;6.00;44.70;;;;;;6293064;28;20236;-56
2022/01/10 11:07:00;;;;;;;27.73;19.37;;;5.90;45.10;;;;;;6288825;28;20535;-58
2022/01/10 11:10:05;;;;;;;26.07;18.17;;;6.10;45.10;;;;;;6298897;28;20244;-57
2022/01/10 11:13:09;;;;;;;24.83;17.23;;;6.00;45.40;;;;;;6293035;28;20397;-57
2022/01/10 11:16:14;;;;;;;26.27;16.53;;;6.10;45.20;;;;;;6300444;28;20247;-58
2022/01/10 11:19:21;;;;;;;27.33;15.40;;;6.10;44.10;;;;;;6293479;28;20244;-58
2022/01/10 11:22:24;;;;;;;21.30;15.30;;;6.20;44.90;;;;;;6288823;28;20240;-58
2022/01/10 11:25:28;;;;;;;24.37;14.87;;;6.10;44.80;;;;;;6286031;28;20256;-58
2022/01/10 11:28:31;;;;;;;24.83;13.87;;;6.10;45.90;;;;;;6290406;28;20224;-58
2022/01/10 11:31:36;;;;;;;16.73;13.57;;;6.10;44.60;;;;;;6288160;28;20347;-58
2022/01/10 11:34:40;;;;;;;16.67;11.67;;;6.20;44.30;;;;;;6296913;28;20292;-56
2022/01/10 11:37:43;;;;;;;20.40;11.43;;;6.20;44.50;;;;;;6306107;28;20269;-57
2022/01/10 11:40:48;;;;;;;11.00;9.80;;;6.20;42.50;;;;;;6301151;28;20322;-58
2022/01/10 11:43:57;;;;;;;10.43;9.07;;;6.20;41.20;;;;;;6289455;28;20772;-57
2022/01/10 11:47:02;;;;;;;12.07;9.77;;;6.20;40.70;;;;;;6302807;28;20241;-58
2022/01/10 11:50:26;;;;;;;11.03;9.33;;;6.30;41.20;;;;;;6302527;28;20267;-56
2022/01/10 11:53:32;;;;;;;12.63;9.10;;;6.30;40.00;;;;;;6304656;28;20305;-57
2022/01/10 11:56:36;;;;;;;10.27;9.27;;;6.50;38.80;;;;;;6301197;28;20433;-58
2022/01/10 11:59:40;;;;;;;10.70;9.60;;;6.40;38.60;;;;;;6303622;28;20328;-58
2022/01/10 12:02:44;;;;;;;11.63;9.80;;;6.40;35.20;;;;;;6294515;28;20229;-58
2022/01/10 12:05:48;;;;;;;10.73;9.60;;;6.50;36.80;;;;;;6302561;28;20224;-58
2022/01/10 12:08:54;;;;;;;10.43;9.27;;;6.70;36.30;;;;;;6306015;28;20720;-57
2022/01/10 12:11:59;;;;;;;10.80;9.80;;;6.50;35.50;;;;;;6294143;28;20232;-57
2022/01/10 12:15:02;;;;;;;11.97;9.20;;;6.60;34.60;;;;;;6299849;28;20240;-57
2022/01/10 12:18:08;;;;;;;9.83;8.77;;;6.50;33.60;;;;;;6298360;28;20247;-57
2022/01/10 12:21:11;;;;;;;9.63;8.83;;;6.50;34.70;;;;;;6303467;28;20319;-56
2022/01/10 12:24:14;;;;;;;9.60;8.70;;;6.50;33.50;;;;;;6297957;28;20502;-56
2022/01/10 12:27:19;;;;;;;10.63;8.40;;;6.70;33.00;;;;;;6290900;28;20752;-58
2022/01/10 12:30:25;;;;;;;8.97;8.10;;;6.50;32.80;;;;;;6292963;28;20714;-57
2022/01/10 12:33:29;;;;;;;11.03;7.80;;;6.60;31.80;;;;;;6292924;28;20225;-57
2022/01/10 12:36:33;;;;;;;7.87;7.27;;;6.40;30.50;;;;;;6293565;28;20285;-57
2022/01/10 12:39:38;;;;;;;8.30;7.50;;;6.40;29.50;;;;;;6296864;28;20782;-57
2022/01/10 12:42:41;;;;;;;7.43;6.93;;;6.40;29.20;;;;;;6297551;28;20236;-57
2022/01/10 12:45:44;;;;;;;6.63;6.20;;;6.20;28.30;;;;;;6297380;28;20363;-59
2022/01/10 12:48:50;;;;;;;7.73;6.83;;;6.40;27.80;;;;;;6295615;28;20292;-58
2022/01/10 12:51:54;;;;;;;6.87;6.47;;;6.40;27.60;;;;;;6304925;28;20280;-58
2022/01/10 12:54:57;;;;;;;7.33;6.63;;;6.30;27.40;;;;;;6300581;28;20436;-57
2022/01/10 12:58:00;;;;;;;7.17;6.57;;;6.50;27.10;;;;;;6292166;28;20238;-57
2022/01/10 13:01:09;;;;;;;7.30;6.70;;;6.50;26.90;;;;;;6300537;28;20370;-57
2022/01/10 13:04:14;;;;;;;7.27;6.73;;;6.30;27.10;;;;;;6292603;28;20782;-56
2022/01/10 13:07:18;;;;;;;7.70;7.10;;;6.30;27.50;;;;;;6288877;28;20320;-58
2022/01/10 13:10:33;;;;;;;8.63;7.87;;;6.50;27.80;;;;;;6301521;28;22049;-57
2022/01/10 13:13:39;;;;;;;12.03;10.13;;;6.30;26.80;;;;;;6296304;28;20324;-57
2022/01/10 13:16:42;;;;;;;23.70;16.47;;;6.30;27.50;;;;;;6297638;28;20412;-57
2022/01/10 13:19:47;;;;;;;23.87;17.33;;;6.30;31.60;;;;;;6295702;28;20244;-57
2022/01/10 13:22:57;;;;;;;29.93;18.70;;;6.20;34.90;;;;;;6303020;28;20556;-58
2022/01/10 13:26:13;;;;;;;36.50;20.00;;;6.40;36.40;;;;;;6294435;28;20703;-56
2022/01/10 13:29:31;;;;;;;23.50;16.77;;;6.10;36.60;;;;;;6298530;28;20240;-57
2022/01/10 13:32:35;;;;;;;24.40;17.77;;;6.20;37.90;;;;;;6301529;28;20274;-58
2022/01/10 13:35:39;;;;;;;31.53;19.80;;;6.00;37.90;;;;;;6303598;28;20225;-57
2022/01/10 13:38:42;;;;;;;33.63;20.43;;;6.00;39.60;;;;;;6298554;28;20497;-59
2022/01/10 13:41:58;;;;;;;31.77;18.80;;;5.90;39.80;;;;;;6294131;28;20633;-57
2022/01/10 13:45:01;;;;;;;28.93;20.17;;;6.10;40.60;;;;;;6299339;28;20415;-57
2022/01/10 13:48:04;;;;;;;33.13;20.70;;;6.30;41.10;;;;;;6287308;28;20851;-58
2022/01/10 13:51:12;;;;;;;35.80;21.43;;;6.10;41.00;;;;;;6284523;28;20241;-57
2022/01/10 13:54:29;;;;;;;37.97;22.13;;;5.90;41.00;;;;;;6282053;28;20258;-57
2022/01/10 13:57:36;;;;;;;33.73;22.60;;;5.90;42.10;;;;;;6299734;28;20782;-58
2022/01/10 14:00:40;;;;;;;41.30;22.30;;;6.00;42.50;;;;;;6290019;28;20694;-57
2022/01/10 14:03:44;;;;;;;36.83;22.30;;;5.90;43.60;;;;;;6287461;28;20244;-57
2022/01/10 14:06:48;;;;;;;41.20;24.63;;;5.90;43.80;;;;;;6293198;28;20237;-57
2022/01/10 14:09:51;;;;;;;39.37;24.47;;;5.70;43.90;;;;;;6302315;28;20457;-57
2022/01/10 14:12:55;;;;;;;40.93;24.37;;;5.70;45.20;;;;;;6297558;28;20796;-58
2022/01/10 14:15:58;;;;;;;42.00;25.40;;;6.00;45.60;;;;;;6295276;28;20233;-56
2022/01/10 14:19:01;;;;;;;52.80;30.43;;;5.90;46.00;;;;;;6294754;28;20716;-57
2022/01/10 14:22:05;;;;;;;58.13;32.87;;;5.90;45.90;;;;;;6284564;28;20243;-56
2022/01/10 14:25:09;;;;;;;56.17;31.33;;;5.70;46.20;;;;;;6292665;28;20576;-57
2022/01/10 14:28:12;;;;;;;52.87;30.43;;;5.60;46.40;;;;;;6297466;28;20236;-57
2022/01/10 14:31:15;;;;;;;55.00;33.70;;;5.60;46.00;;;;;;6297161;28;20837;-56
2022/01/10 14:34:19;;;;;;;62.60;33.77;;;5.50;46.80;;;;;;6301392;28;20248;-58
2022/01/10 14:37:23;;;;;;;50.47;31.17;;;5.40;47.00;;;;;;6302612;28;20232;-57
2022/01/10 14:40:25;;;;;;;58.07;31.67;;;5.60;47.60;;;;;;6294028;28;20787;-58
2022/01/10 14:43:29;;;;;;;54.23;37.10;;;5.30;47.40;;;;;;6296867;28;20267;-57
2022/01/10 14:46:33;;;;;;;70.70;41.40;;;5.20;46.50;;;;;;6304566;28;20233;-57
2022/01/10 14:49:38;;;;;;;75.87;44.53;;;5.20;46.40;;;;;;6288994;28;20704;-58
2022/01/10 14:52:42;;;;;;;79.07;46.93;;;5.50;45.90;;;;;;6296561;28;20357;-57
2022/01/10 14:55:48;;;;;;;72.53;45.73;;;5.00;46.40;;;;;;6303479;28;20509;-57
2022/01/10 14:58:50;;;;;;;76.30;45.97;;;5.00;46.40;;;;;;6284974;28;20381;-57
2022/01/10 15:01:53;;;;;;;75.00;45.23;;;4.80;46.70;;;;;;6290421;28;20326;-57
2022/01/10 15:04:56;;;;;;;81.80;45.70;;;4.80;46.40;;;;;;6296099;28;20229;-57
2022/01/10 15:08:01;;;;;;;75.07;44.93;;;4.80;46.30;;;;;;6295658;28;20228;-57
2022/01/10 15:11:04;;;;;;;80.63;46.83;;;4.90;46.70;;;;;;6303793;28;20237;-57
2022/01/10 15:14:10;;;;;;;79.67;44.53;;;4.70;47.40;;;;;;6299943;28;20301;-57
2022/01/10 15:17:13;;;;;;;72.37;44.17;;;4.60;47.20;;;;;;6300407;28;20544;-56
2022/01/10 15:20:16;;;;;;;71.93;44.13;;;4.60;46.60;;;;;;6298216;28;20247;-57
2022/01/10 15:23:20;;;;;;;66.03;42.90;;;4.70;46.20;;;;;;6302483;28;20316;-57
2022/01/10 15:26:23;;;;;;;69.27;42.80;;;4.50;45.90;;;;;;6303153;28;20496;-57
2022/01/10 15:29:26;;;;;;;75.93;46.10;;;4.60;45.90;;;;;;6296881;28;20242;-56
2022/01/10 15:32:29;;;;;;;73.80;45.30;;;4.40;45.20;;;;;;6301186;28;20232;-57
2022/01/10 15:35:31;;;;;;;75.23;44.53;;;4.50;45.00;;;;;;6302775;28;20310;-57
2022/01/10 15:38:36;;;;;;;73.80;45.83;;;4.30;44.30;;;;;;6305876;28;20793;-58
2022/01/10 15:41:40;;;;;;;76.00;47.60;;;4.50;44.00;;;;;;6305564;28;20374;-57
2022/01/10 15:44:43;;;;;;;83.33;51.70;;;4.40;43.60;;;;;;6295571;28;20847;-57
2022/01/10 15:47:46;;;;;;;88.10;54.30;;;4.30;43.30;;;;;;6282953;28;20232;-58
2022/01/10 15:50:49;;;;;;;87.33;51.80;;;4.20;43.20;;;;;;6300950;28;20331;-57
2022/01/10 15:53:53;;;;;;;84.90;52.93;;;4.50;43.60;;;;;;6295045;28;20236;-57
2022/01/10 15:56:55;;;;;;;91.07;54.80;;;4.40;43.40;;;;;;6294190;28;20499;-57